sensor_id;sensor_type;location;lat;lon;timestamp;temperature;humidity
27797;DHT22;15177;50.844;4.412;2023-02-27T00:00:59;2.30;99.90
27797;DHT22;15177;50.844;4.412;2023-02-27T00:03:25;2.30;99.90
27797;DHT22;15177;50.844;4.412;2023-02-27T00:05:51;2.30;99.90
27797;DHT22;15177;50.844;4.412;2023-02-27T00:08:16;2.30;99.90
27797;DHT22;15177;50.844;4.412;2023-02-27T00:10:42;2.30;99.90
27797;DHT22;15177;50.844;4.412;2023-02-27T00:13:09;2.30;99.90
27797;DHT22;15177;50.844;4.412;2023-02-27T00:15:35;2.30;99.90
27797;DHT22;15177;50.844;4.412;2023-02-27T00:18:03;2.20;99.90
27797;DHT22;15177;50.844;4.412;2023-02-27T00:20:28;2.20;99.90
27797;DHT22;15177;50.844;4.412;2023-02-27T00:22:54;2.20;99.90
27797;DHT22;15177;50.844;4.412;2023-02-27T00:25:20;2.20;99.90
27797;DHT22;15177;50.844;4.412;2023-02-27T00:27:46;2.10;99.90
27797;DHT22;15177;50.844;4.412;2023-02-27T00:30:13;2.10;99.90
27797;DHT22;15177;50.844;4.412;2023-02-27T00:32:40;1.90;99.90
27797;DHT22;15177;50.844;4.412;2023-02-27T00:35:09;2.00;99.90
27797;DHT22;15177;50.844;4.412;2023-02-27T00:37:35;2.10;99.90
27797;DHT22;15177;50.844;4.412;2023-02-27T00:40:02;2.10;99.90
27797;DHT22;15177;50.844;4.412;2023-02-27T00:42:29;2.10;99.90
27797;DHT22;15177;50.844;4.412;2023-02-27T00:44:56;2.00;99.90
27797;DHT22;15177;50.844;4.412;2023-02-27T00:47:22;2.00;99.90
27797;DHT22;15177;50.844;4.412;2023-02-27T00:49:48;1.90;99.90
27797;DHT22;15177;50.844;4.412;2023-02-27T00:52:15;1.80;99.90
27797;DHT22;15177;50.844;4.412;2023-02-27T00:54:41;1.80;99.90
27797;DHT22;15177;50.844;4.412;2023-02-27T00:57:07;1.80;99.90
27797;DHT22;15177;50.844;4.412;2023-02-27T00:59:32;1.80;99.90
27797;DHT22;15177;50.844;4.412;2023-02-27T01:01:58;1.80;99.90
27797;DHT22;15177;50.844;4.412;2023-02-27T01:04:25;1.70;99.90
27797;DHT22;15177;50.844;4.412;2023-02-27T01:06:52;1.70;99.90
27797;DHT22;15177;50.844;4.412;2023-02-27T01:09:19;1.90;99.90
27797;DHT22;15177;50.844;4.412;2023-02-27T01:11:45;1.90;99.90
27797;DHT22;15177;50.844;4.412;2023-02-27T01:14:10;1.90;99.90
27797;DHT22;15177;50.844;4.412;2023-02-27T01:16:36;1.80;99.90
27797;DHT22;15177;50.844;4.412;2023-02-27T01:19:02;1.70;99.90
27797;DHT22;15177;50.844;4.412;2023-02-27T01:21:29;1.70;99.90
27797;DHT22;15177;50.844;4.412;2023-02-27T01:23:54;1.70;99.90
27797;DHT22;15177;50.844;4.412;2023-02-27T01:26:20;1.80;99.90
27797;DHT22;15177;50.844;4.412;2023-02-27T01:28:46;1.80;99.90
27797;DHT22;15177;50.844;4.412;2023-02-27T01:31:12;1.80;99.90
27797;DHT22;15177;50.844;4.412;2023-02-27T01:33:37;1.80;99.90
27797;DHT22;15177;50.844;4.412;2023-02-27T01:36:04;1.80;99.90
27797;DHT22;15177;50.844;4.412;2023-02-27T01:38:29;1.80;99.90
27797;DHT22;15177;50.844;4.412;2023-02-27T01:40:56;1.80;99.90
27797;DHT22;15177;50.844;4.412;2023-02-27T01:43:22;1.70;99.90
27797;DHT22;15177;50.844;4.412;2023-02-27T01:45:50;1.80;99.90
27797;DHT22;15177;50.844;4.412;2023-02-27T01:51:03;1.80;99.90
27797;DHT22;15177;50.844;4.412;2023-02-27T01:53:32;1.70;99.90
27797;DHT22;15177;50.844;4.412;2023-02-27T01:56:10;1.70;99.90
27797;DHT22;15177;50.844;4.412;2023-02-27T01:58:37;1.80;99.90
27797;DHT22;15177;50.844;4.412;2023-02-27T02:01:04;1.60;99.90
27797;DHT22;15177;50.844;4.412;2023-02-27T02:03:41;1.50;99.90
27797;DHT22;15177;50.844;4.412;2023-02-27T02:06:08;1.50;99.90
27797;DHT22;15177;50.844;4.412;2023-02-27T02:08:38;1.60;99.90
27797;DHT22;15177;50.844;4.412;2023-02-27T02:11:08;1.60;99.90
27797;DHT22;15177;50.844;4.412;2023-02-27T02:13:34;1.60;99.90
27797;DHT22;15177;50.844;4.412;2023-02-27T02:16:13;1.70;99.90
27797;DHT22;15177;50.844;4.412;2023-02-27T02:24:26;1.50;99.90
27797;DHT22;15177;50.844;4.412;2023-02-27T02:27:09;1.30;99.90
27797;DHT22;15177;50.844;4.412;2023-02-27T02:44:01;1.50;99.90
27797;DHT22;15177;50.844;4.412;2023-02-27T02:46:51;1.50;99.90
27797;DHT22;15177;50.844;4.412;2023-02-27T02:49:25;1.40;99.90
27797;DHT22;15177;50.844;4.412;2023-02-27T02:52:24;1.40;99.90
27797;DHT22;15177;50.844;4.412;2023-02-27T02:55:07;1.40;99.90
27797;DHT22;15177;50.844;4.412;2023-02-27T02:57:47;1.30;99.90
27797;DHT22;15177;50.844;4.412;2023-02-27T03:00:17;1.30;99.90
27797;DHT22;15177;50.844;4.412;2023-02-27T03:02:54;1.20;99.90
27797;DHT22;15177;50.844;4.412;2023-02-27T03:05:28;1.20;99.90
27797;DHT22;15177;50.844;4.412;2023-02-27T03:08:10;1.20;99.90
27797;DHT22;15177;50.844;4.412;2023-02-27T03:10:45;1.40;99.90
27797;DHT22;15177;50.844;4.412;2023-02-27T03:13:19;1.30;99.90
27797;DHT22;15177;50.844;4.412;2023-02-27T03:16:01;1.30;99.90
27797;DHT22;15177;50.844;4.412;2023-02-27T03:18:38;1.30;99.90
27797;DHT22;15177;50.844;4.412;2023-02-27T03:21:10;1.30;99.90
27797;DHT22;15177;50.844;4.412;2023-02-27T03:23:42;1.30;99.90
27797;DHT22;15177;50.844;4.412;2023-02-27T03:26:12;1.30;99.90
27797;DHT22;15177;50.844;4.412;2023-02-27T03:29:29;1.30;99.90
27797;DHT22;15177;50.844;4.412;2023-02-27T03:31:48;1.30;99.90
27797;DHT22;15177;50.844;4.412;2023-02-27T03:34:25;1.30;99.90
27797;DHT22;15177;50.844;4.412;2023-02-27T03:37:16;1.20;99.90
27797;DHT22;15177;50.844;4.412;2023-02-27T03:40:18;1.00;99.90
27797;DHT22;15177;50.844;4.412;2023-02-27T03:42:53;1.00;99.90
27797;DHT22;15177;50.844;4.412;2023-02-27T03:47:53;1.10;99.90
27797;DHT22;15177;50.844;4.412;2023-02-27T03:50:19;1.10;99.90
27797;DHT22;15177;50.844;4.412;2023-02-27T03:52:45;1.00;99.90
27797;DHT22;15177;50.844;4.412;2023-02-27T03:55:15;1.00;99.90
27797;DHT22;15177;50.844;4.412;2023-02-27T03:57:43;0.90;99.90
27797;DHT22;15177;50.844;4.412;2023-02-27T04:00:15;0.90;99.90
27797;DHT22;15177;50.844;4.412;2023-02-27T04:02:43;0.90;99.90
27797;DHT22;15177;50.844;4.412;2023-02-27T04:05:09;0.90;99.90
27797;DHT22;15177;50.844;4.412;2023-02-27T04:13:51;0.90;99.90
27797;DHT22;15177;50.844;4.412;2023-02-27T04:19:17;0.70;99.90
27797;DHT22;15177;50.844;4.412;2023-02-27T04:27:28;0.80;99.90
27797;DHT22;15177;50.844;4.412;2023-02-27T04:30:16;0.80;99.90
27797;DHT22;15177;50.844;4.412;2023-02-27T04:32:51;0.70;99.90
27797;DHT22;15177;50.844;4.412;2023-02-27T04:36:07;0.60;99.90
27797;DHT22;15177;50.844;4.412;2023-02-27T04:41:28;0.60;99.90
27797;DHT22;15177;50.844;4.412;2023-02-27T04:43:56;0.40;99.90
27797;DHT22;15177;50.844;4.412;2023-02-27T04:46:25;0.40;99.90
27797;DHT22;15177;50.844;4.412;2023-02-27T04:48:59;0.40;99.90
27797;DHT22;15177;50.844;4.412;2023-02-27T04:54:31;0.30;99.90
27797;DHT22;15177;50.844;4.412;2023-02-27T04:57:06;0.50;99.90
27797;DHT22;15177;50.844;4.412;2023-02-27T04:59:36;0.40;99.90
27797;DHT22;15177;50.844;4.412;2023-02-27T05:02:32;0.40;99.90
27797;DHT22;15177;50.844;4.412;2023-02-27T05:04:59;0.40;99.90
27797;DHT22;15177;50.844;4.412;2023-02-27T05:07:35;0.40;99.90
27797;DHT22;15177;50.844;4.412;2023-02-27T05:10:27;0.40;99.90
27797;DHT22;15177;50.844;4.412;2023-02-27T05:13:10;0.40;99.90
27797;DHT22;15177;50.844;4.412;2023-02-27T05:15:46;0.30;99.90
27797;DHT22;15177;50.844;4.412;2023-02-27T05:18:17;0.50;99.90
27797;DHT22;15177;50.844;4.412;2023-02-27T05:21:04;0.40;99.90
27797;DHT22;15177;50.844;4.412;2023-02-27T05:26:26;0.30;99.90
27797;DHT22;15177;50.844;4.412;2023-02-27T05:37:34;0.50;99.90
27797;DHT22;15177;50.844;4.412;2023-02-27T05:40:04;0.50;99.90
27797;DHT22;15177;50.844;4.412;2023-02-27T05:42:57;0.70;99.90
27797;DHT22;15177;50.844;4.412;2023-02-27T05:45:28;0.80;99.90
27797;DHT22;15177;50.844;4.412;2023-02-27T05:47:59;0.70;99.90
27797;DHT22;15177;50.844;4.412;2023-02-27T05:50:30;0.70;99.90
27797;DHT22;15177;50.844;4.412;2023-02-27T05:53:06;0.60;99.90
27797;DHT22;15177;50.844;4.412;2023-02-27T05:55:38;0.40;99.90
27797;DHT22;15177;50.844;4.412;2023-02-27T06:01:00;0.60;99.90
27797;DHT22;15177;50.844;4.412;2023-02-27T06:03:28;0.70;99.90
27797;DHT22;15177;50.844;4.412;2023-02-27T06:05:58;0.60;99.90
27797;DHT22;15177;50.844;4.412;2023-02-27T06:08:25;0.50;99.90
27797;DHT22;15177;50.844;4.412;2023-02-27T06:10:51;0.60;99.90
27797;DHT22;15177;50.844;4.412;2023-02-27T06:13:17;0.50;99.90
27797;DHT22;15177;50.844;4.412;2023-02-27T06:15:44;0.50;99.90
27797;DHT22;15177;50.844;4.412;2023-02-27T06:18:11;0.50;99.90
27797;DHT22;15177;50.844;4.412;2023-02-27T06:20:39;0.50;99.90
27797;DHT22;15177;50.844;4.412;2023-02-27T06:23:07;0.40;99.90
27797;DHT22;15177;50.844;4.412;2023-02-27T06:25:33;0.40;99.90
27797;DHT22;15177;50.844;4.412;2023-02-27T06:27:59;0.30;99.90
27797;DHT22;15177;50.844;4.412;2023-02-27T06:30:26;0.30;99.90
27797;DHT22;15177;50.844;4.412;2023-02-27T06:32:53;0.20;99.90
27797;DHT22;15177;50.844;4.412;2023-02-27T06:35:21;0.20;99.90
27797;DHT22;15177;50.844;4.412;2023-02-27T06:37:47;0.30;99.90
27797;DHT22;15177;50.844;4.412;2023-02-27T06:40:14;0.30;99.90
27797;DHT22;15177;50.844;4.412;2023-02-27T06:42:41;0.40;99.90
27797;DHT22;15177;50.844;4.412;2023-02-27T06:45:08;0.50;99.90
27797;DHT22;15177;50.844;4.412;2023-02-27T06:47:35;0.40;99.90
27797;DHT22;15177;50.844;4.412;2023-02-27T06:50:02;0.50;99.90
27797;DHT22;15177;50.844;4.412;2023-02-27T06:52:28;0.50;99.90
27797;DHT22;15177;50.844;4.412;2023-02-27T06:54:55;0.50;99.90
27797;DHT22;15177;50.844;4.412;2023-02-27T06:57:21;0.50;99.90
27797;DHT22;15177;50.844;4.412;2023-02-27T06:59:48;0.60;99.90
27797;DHT22;15177;50.844;4.412;2023-02-27T07:02:15;0.50;99.90
27797;DHT22;15177;50.844;4.412;2023-02-27T07:04:42;0.60;99.90
27797;DHT22;15177;50.844;4.412;2023-02-27T07:07:09;0.70;99.90
27797;DHT22;15177;50.844;4.412;2023-02-27T07:09:35;0.60;99.90
27797;DHT22;15177;50.844;4.412;2023-02-27T07:12:03;0.60;99.90
27797;DHT22;15177;50.844;4.412;2023-02-27T07:14:29;0.60;99.90
27797;DHT22;15177;50.844;4.412;2023-02-27T07:16:57;0.80;99.90
27797;DHT22;15177;50.844;4.412;2023-02-27T07:19:31;1.00;99.90
27797;DHT22;15177;50.844;4.412;2023-02-27T07:21:58;0.80;99.90
27797;DHT22;15177;50.844;4.412;2023-02-27T07:24:24;0.90;99.90
27797;DHT22;15177;50.844;4.412;2023-02-27T07:26:52;1.10;99.90
27797;DHT22;15177;50.844;4.412;2023-02-27T07:29:26;1.10;99.90
27797;DHT22;15177;50.844;4.412;2023-02-27T07:31:56;1.30;99.90
27797;DHT22;15177;50.844;4.412;2023-02-27T07:34:23;2.00;99.90
27797;DHT22;15177;50.844;4.412;2023-02-27T07:36:50;3.10;99.90
27797;DHT22;15177;50.844;4.412;2023-02-27T07:39:19;4.10;99.90
27797;DHT22;15177;50.844;4.412;2023-02-27T07:41:48;5.40;99.90
27797;DHT22;15177;50.844;4.412;2023-02-27T07:44:15;6.10;99.90
27797;DHT22;15177;50.844;4.412;2023-02-27T07:46:42;7.20;99.90
27797;DHT22;15177;50.844;4.412;2023-02-27T07:49:09;8.00;99.90
27797;DHT22;15177;50.844;4.412;2023-02-27T07:51:36;8.50;99.90
27797;DHT22;15177;50.844;4.412;2023-02-27T07:54:01;9.30;99.90
27797;DHT22;15177;50.844;4.412;2023-02-27T07:56:36;9.60;99.90
27797;DHT22;15177;50.844;4.412;2023-02-27T07:59:24;9.80;99.00
27797;DHT22;15177;50.844;4.412;2023-02-27T08:01:50;9.90;98.10
27797;DHT22;15177;50.844;4.412;2023-02-27T08:04:16;10.10;96.80
27797;DHT22;15177;50.844;4.412;2023-02-27T08:06:42;10.30;96.60
27797;DHT22;15177;50.844;4.412;2023-02-27T08:09:09;10.60;95.80
27797;DHT22;15177;50.844;4.412;2023-02-27T08:11:35;10.70;94.80
27797;DHT22;15177;50.844;4.412;2023-02-27T08:14:01;11.30;93.40
27797;DHT22;15177;50.844;4.412;2023-02-27T08:16:38;11.30;92.80
27797;DHT22;15177;50.844;4.412;2023-02-27T08:19:05;11.30;92.80
27797;DHT22;15177;50.844;4.412;2023-02-27T08:21:38;11.60;91.90
27797;DHT22;15177;50.844;4.412;2023-02-27T08:24:27;12.00;90.70
27797;DHT22;15177;50.844;4.412;2023-02-27T08:26:53;11.20;91.30
27797;DHT22;15177;50.844;4.412;2023-02-27T08:29:18;10.70;92.00
27797;DHT22;15177;50.844;4.412;2023-02-27T08:31:44;11.10;92.40
27797;DHT22;15177;50.844;4.412;2023-02-27T08:34:12;11.40;91.40
27797;DHT22;15177;50.844;4.412;2023-02-27T08:36:38;11.30;90.80
27797;DHT22;15177;50.844;4.412;2023-02-27T08:39:05;11.60;91.20
27797;DHT22;15177;50.844;4.412;2023-02-27T08:41:32;11.90;90.10
27797;DHT22;15177;50.844;4.412;2023-02-27T08:43:57;12.50;88.10
27797;DHT22;15177;50.844;4.412;2023-02-27T08:46:23;12.10;88.50
27797;DHT22;15177;50.844;4.412;2023-02-27T08:48:49;11.80;90.00
27797;DHT22;15177;50.844;4.412;2023-02-27T08:51:14;12.20;87.60
27797;DHT22;15177;50.844;4.412;2023-02-27T08:53:40;12.70;84.90
27797;DHT22;15177;50.844;4.412;2023-02-27T08:56:06;12.50;83.90
27797;DHT22;15177;50.844;4.412;2023-02-27T08:58:31;13.00;83.80
27797;DHT22;15177;50.844;4.412;2023-02-27T09:00:57;12.40;84.50
27797;DHT22;15177;50.844;4.412;2023-02-27T09:03:23;12.50;82.20
27797;DHT22;15177;50.844;4.412;2023-02-27T09:05:53;12.40;84.20
27797;DHT22;15177;50.844;4.412;2023-02-27T09:08:20;12.10;84.30
27797;DHT22;15177;50.844;4.412;2023-02-27T09:10:46;11.50;86.40
27797;DHT22;15177;50.844;4.412;2023-02-27T09:13:12;11.40;89.50
27797;DHT22;15177;50.844;4.412;2023-02-27T09:15:37;11.40;88.70
27797;DHT22;15177;50.844;4.412;2023-02-27T09:18:04;11.80;88.80
27797;DHT22;15177;50.844;4.412;2023-02-27T09:20:35;11.90;86.00
27797;DHT22;15177;50.844;4.412;2023-02-27T09:23:02;12.10;83.90
27797;DHT22;15177;50.844;4.412;2023-02-27T09:25:30;12.30;84.00
27797;DHT22;15177;50.844;4.412;2023-02-27T09:27:59;11.70;85.70
27797;DHT22;15177;50.844;4.412;2023-02-27T09:30:26;12.20;84.70
27797;DHT22;15177;50.844;4.412;2023-02-27T09:32:52;12.80;81.40
27797;DHT22;15177;50.844;4.412;2023-02-27T09:35:18;13.20;78.50
27797;DHT22;15177;50.844;4.412;2023-02-27T09:37:47;13.40;77.20
27797;DHT22;15177;50.844;4.412;2023-02-27T09:40:24;13.60;76.40
27797;DHT22;15177;50.844;4.412;2023-02-27T09:42:52;13.90;75.30
27797;DHT22;15177;50.844;4.412;2023-02-27T09:45:32;13.60;72.90
27797;DHT22;15177;50.844;4.412;2023-02-27T09:48:12;13.60;72.70
27797;DHT22;15177;50.844;4.412;2023-02-27T09:50:47;13.50;73.60
27797;DHT22;15177;50.844;4.412;2023-02-27T09:53:36;13.60;73.10
27797;DHT22;15177;50.844;4.412;2023-02-27T10:01:31;11.70;76.30
27797;DHT22;15177;50.844;4.412;2023-02-27T10:06:36;12.40;75.10
27797;DHT22;15177;50.844;4.412;2023-02-27T10:09:28;12.00;74.50
27797;DHT22;15177;50.844;4.412;2023-02-27T10:14:46;11.80;77.00
27797;DHT22;15177;50.844;4.412;2023-02-27T10:17:23;12.00;76.60
27797;DHT22;15177;50.844;4.412;2023-02-27T10:19:51;11.80;74.80
27797;DHT22;15177;50.844;4.412;2023-02-27T10:22:22;11.60;77.00
27797;DHT22;15177;50.844;4.412;2023-02-27T10:25:02;11.60;76.00
27797;DHT22;15177;50.844;4.412;2023-02-27T10:27:29;12.20;75.00
27797;DHT22;15177;50.844;4.412;2023-02-27T10:30:00;12.00;73.70
27797;DHT22;15177;50.844;4.412;2023-02-27T10:32:35;11.60;77.50
27797;DHT22;15177;50.844;4.412;2023-02-27T10:35:09;12.20;73.60
27797;DHT22;15177;50.844;4.412;2023-02-27T10:37:47;12.00;73.60
27797;DHT22;15177;50.844;4.412;2023-02-27T10:40:15;11.00;77.20
27797;DHT22;15177;50.844;4.412;2023-02-27T10:42:41;10.80;79.90
27797;DHT22;15177;50.844;4.412;2023-02-27T10:45:16;11.50;78.70
27797;DHT22;15177;50.844;4.412;2023-02-27T10:47:42;11.10;77.40
27797;DHT22;15177;50.844;4.412;2023-02-27T10:50:33;10.20;81.20
27797;DHT22;15177;50.844;4.412;2023-02-27T10:53:02;10.40;83.70
27797;DHT22;15177;50.844;4.412;2023-02-27T10:55:36;10.70;81.40
27797;DHT22;15177;50.844;4.412;2023-02-27T10:58:05;10.70;80.80
27797;DHT22;15177;50.844;4.412;2023-02-27T11:00:53;10.80;80.60
27797;DHT22;15177;50.844;4.412;2023-02-27T11:03:23;10.20;81.10
27797;DHT22;15177;50.844;4.412;2023-02-27T11:06:06;9.50;82.50
27797;DHT22;15177;50.844;4.412;2023-02-27T11:08:35;8.90;87.20
27797;DHT22;15177;50.844;4.412;2023-02-27T11:11:19;8.60;90.60
27797;DHT22;15177;50.844;4.412;2023-02-27T11:13:53;8.30;91.50
27797;DHT22;15177;50.844;4.412;2023-02-27T11:16:20;7.70;93.10
27797;DHT22;15177;50.844;4.412;2023-02-27T11:18:48;7.90;93.40
27797;DHT22;15177;50.844;4.412;2023-02-27T11:21:19;7.60;93.30
27797;DHT22;15177;50.844;4.412;2023-02-27T11:26:25;6.90;94.30
27797;DHT22;15177;50.844;4.412;2023-02-27T11:31:48;6.60;95.80
27797;DHT22;15177;50.844;4.412;2023-02-27T11:34:34;6.50;96.30
27797;DHT22;15177;50.844;4.412;2023-02-27T11:37:07;6.70;97.10
27797;DHT22;15177;50.844;4.412;2023-02-27T11:42:32;7.20;96.30
27797;DHT22;15177;50.844;4.412;2023-02-27T11:45:06;7.10;96.10
27797;DHT22;15177;50.844;4.412;2023-02-27T11:47:38;7.20;96.10
27797;DHT22;15177;50.844;4.412;2023-02-27T11:55:55;6.80;98.40
27797;DHT22;15177;50.844;4.412;2023-02-27T11:58:27;7.00;98.10
27797;DHT22;15177;50.844;4.412;2023-02-27T12:01:04;7.10;98.10
27797;DHT22;15177;50.844;4.412;2023-02-27T12:03:54;7.00;98.10
27797;DHT22;15177;50.844;4.412;2023-02-27T12:06:57;7.10;98.50
27797;DHT22;15177;50.844;4.412;2023-02-27T12:09:41;6.90;98.20
27797;DHT22;15177;50.844;4.412;2023-02-27T12:12:25;6.80;98.30
27797;DHT22;15177;50.844;4.412;2023-02-27T12:15:01;7.00;97.50
27797;DHT22;15177;50.844;4.412;2023-02-27T12:22:48;6.30;98.30
27797;DHT22;15177;50.844;4.412;2023-02-27T12:31:29;6.50;98.60
27797;DHT22;15177;50.844;4.412;2023-02-27T12:34:21;6.70;98.00
27797;DHT22;15177;50.844;4.412;2023-02-27T12:36:51;6.80;97.40
27797;DHT22;15177;50.844;4.412;2023-02-27T12:39:22;6.90;97.90
27797;DHT22;15177;50.844;4.412;2023-02-27T12:48:02;6.70;98.80
27797;DHT22;15177;50.844;4.412;2023-02-27T12:50:48;6.60;98.90
27797;DHT22;15177;50.844;4.412;2023-02-27T12:56:24;6.70;98.50
27797;DHT22;15177;50.844;4.412;2023-02-27T12:59:17;6.60;98.50
27797;DHT22;15177;50.844;4.412;2023-02-27T13:04:56;6.50;98.60
27797;DHT22;15177;50.844;4.412;2023-02-27T13:09:59;6.30;97.20
27797;DHT22;15177;50.844;4.412;2023-02-27T13:12:38;6.30;97.40
27797;DHT22;15177;50.844;4.412;2023-02-27T13:15:20;6.50;97.50
27797;DHT22;15177;50.844;4.412;2023-02-27T13:17:52;6.50;97.20
27797;DHT22;15177;50.844;4.412;2023-02-27T13:26:13;6.60;98.00
27797;DHT22;15177;50.844;4.412;2023-02-27T13:28:41;6.60;97.80
27797;DHT22;15177;50.844;4.412;2023-02-27T13:32:09;6.50;98.40
27797;DHT22;15177;50.844;4.412;2023-02-27T13:36:47;6.50;98.40
27797;DHT22;15177;50.844;4.412;2023-02-27T13:44:53;6.70;97.40
27797;DHT22;15177;50.844;4.412;2023-02-27T13:50:03;6.40;97.70
27797;DHT22;15177;50.844;4.412;2023-02-27T13:52:36;6.50;97.80
27797;DHT22;15177;50.844;4.412;2023-02-27T13:55:06;6.60;97.90
27797;DHT22;15177;50.844;4.412;2023-02-27T13:57:49;6.60;98.10
27797;DHT22;15177;50.844;4.412;2023-02-27T14:00:21;6.60;98.00
27797;DHT22;15177;50.844;4.412;2023-02-27T14:03:07;6.70;97.60
27797;DHT22;15177;50.844;4.412;2023-02-27T14:05:38;6.70;97.80
27797;DHT22;15177;50.844;4.412;2023-02-27T14:08:13;6.60;97.40
27797;DHT22;15177;50.844;4.412;2023-02-27T14:10:54;6.50;97.60
27797;DHT22;15177;50.844;4.412;2023-02-27T14:24:19;6.60;98.90
27797;DHT22;15177;50.844;4.412;2023-02-27T14:26:47;6.50;99.20
27797;DHT22;15177;50.844;4.412;2023-02-27T14:29:19;6.60;99.20
27797;DHT22;15177;50.844;4.412;2023-02-27T14:31:46;6.60;99.00
27797;DHT22;15177;50.844;4.412;2023-02-27T14:34:14;6.50;98.40
27797;DHT22;15177;50.844;4.412;2023-02-27T14:36:45;6.50;98.90
27797;DHT22;15177;50.844;4.412;2023-02-27T14:39:32;6.50;99.30
27797;DHT22;15177;50.844;4.412;2023-02-27T14:44:41;6.30;99.90
27797;DHT22;15177;50.844;4.412;2023-02-27T14:47:35;6.40;99.90
27797;DHT22;15177;50.844;4.412;2023-02-27T14:50:04;6.70;99.90
27797;DHT22;15177;50.844;4.412;2023-02-27T14:52:41;6.60;99.50
27797;DHT22;15177;50.844;4.412;2023-02-27T14:58:08;6.60;99.60
27797;DHT22;15177;50.844;4.412;2023-02-27T15:00:57;6.70;99.50
27797;DHT22;15177;50.844;4.412;2023-02-27T15:03:27;6.50;99.80
27797;DHT22;15177;50.844;4.412;2023-02-27T15:05:58;6.50;99.90
27797;DHT22;15177;50.844;4.412;2023-02-27T15:08:37;6.50;99.90
27797;DHT22;15177;50.844;4.412;2023-02-27T15:11:04;6.40;99.90
27797;DHT22;15177;50.844;4.412;2023-02-27T15:13:36;6.30;99.90
27797;DHT22;15177;50.844;4.412;2023-02-27T15:16:18;6.30;99.90
27797;DHT22;15177;50.844;4.412;2023-02-27T15:18:57;6.30;99.90
27797;DHT22;15177;50.844;4.412;2023-02-27T15:21:25;6.40;99.90
27797;DHT22;15177;50.844;4.412;2023-02-27T15:24:03;6.50;99.90
27797;DHT22;15177;50.844;4.412;2023-02-27T15:26:34;6.60;99.90
27797;DHT22;15177;50.844;4.412;2023-02-27T15:29:01;6.50;99.90
27797;DHT22;15177;50.844;4.412;2023-02-27T15:31:28;6.50;99.90
27797;DHT22;15177;50.844;4.412;2023-02-27T15:33:58;6.40;99.90
27797;DHT22;15177;50.844;4.412;2023-02-27T15:36:31;6.60;99.90
27797;DHT22;15177;50.844;4.412;2023-02-27T15:39:17;6.60;99.90
27797;DHT22;15177;50.844;4.412;2023-02-27T15:41:54;6.40;99.90
27797;DHT22;15177;50.844;4.412;2023-02-27T15:44:27;6.20;99.90
27797;DHT22;15177;50.844;4.412;2023-02-27T15:46:55;6.20;99.90
27797;DHT22;15177;50.844;4.412;2023-02-27T15:49:23;6.20;99.90
27797;DHT22;15177;50.844;4.412;2023-02-27T15:51:59;6.20;99.90
27797;DHT22;15177;50.844;4.412;2023-02-27T15:54:26;6.10;99.90
27797;DHT22;15177;50.844;4.412;2023-02-27T15:56:55;6.30;99.90
27797;DHT22;15177;50.844;4.412;2023-02-27T15:59:23;6.30;99.90
27797;DHT22;15177;50.844;4.412;2023-02-27T16:01:50;6.10;99.90
27797;DHT22;15177;50.844;4.412;2023-02-27T16:04:24;6.20;99.90
27797;DHT22;15177;50.844;4.412;2023-02-27T16:07:03;6.30;99.90
27797;DHT22;15177;50.844;4.412;2023-02-27T16:09:34;6.10;99.90
27797;DHT22;15177;50.844;4.412;2023-02-27T16:14:47;6.00;99.90
27797;DHT22;15177;50.844;4.412;2023-02-27T16:17:29;6.00;99.90
27797;DHT22;15177;50.844;4.412;2023-02-27T16:19:57;6.10;99.90
27797;DHT22;15177;50.844;4.412;2023-02-27T16:22:24;6.10;99.90
27797;DHT22;15177;50.844;4.412;2023-02-27T16:24:51;5.80;99.90
27797;DHT22;15177;50.844;4.412;2023-02-27T16:27:27;5.80;99.90
27797;DHT22;15177;50.844;4.412;2023-02-27T16:29:55;5.80;99.90
27797;DHT22;15177;50.844;4.412;2023-02-27T16:32:38;6.00;99.90
27797;DHT22;15177;50.844;4.412;2023-02-27T16:35:19;5.90;99.90
27797;DHT22;15177;50.844;4.412;2023-02-27T16:37:46;6.10;99.90
27797;DHT22;15177;50.844;4.412;2023-02-27T16:40:21;6.00;99.90
27797;DHT22;15177;50.844;4.412;2023-02-27T16:42:46;6.20;99.90
27797;DHT22;15177;50.844;4.412;2023-02-27T16:45:20;6.00;99.90
27797;DHT22;15177;50.844;4.412;2023-02-27T16:47:52;5.90;99.90
27797;DHT22;15177;50.844;4.412;2023-02-27T16:50:41;5.80;99.90
27797;DHT22;15177;50.844;4.412;2023-02-27T16:53:07;5.90;99.90
27797;DHT22;15177;50.844;4.412;2023-02-27T16:55:38;5.90;99.90
27797;DHT22;15177;50.844;4.412;2023-02-27T16:58:03;5.80;99.90
27797;DHT22;15177;50.844;4.412;2023-02-27T17:00:31;5.80;99.90
27797;DHT22;15177;50.844;4.412;2023-02-27T17:02:58;5.60;99.90
27797;DHT22;15177;50.844;4.412;2023-02-27T17:05:25;5.70;99.90
27797;DHT22;15177;50.844;4.412;2023-02-27T17:07:51;5.70;99.90
27797;DHT22;15177;50.844;4.412;2023-02-27T17:10:19;5.70;99.90
27797;DHT22;15177;50.844;4.412;2023-02-27T17:12:46;5.60;99.90
27797;DHT22;15177;50.844;4.412;2023-02-27T17:15:13;5.40;99.90
27797;DHT22;15177;50.844;4.412;2023-02-27T17:17:39;5.50;99.90
27797;DHT22;15177;50.844;4.412;2023-02-27T17:20:05;5.70;99.90
27797;DHT22;15177;50.844;4.412;2023-02-27T17:22:34;5.60;99.90
27797;DHT22;15177;50.844;4.412;2023-02-27T17:25:01;5.40;99.90
27797;DHT22;15177;50.844;4.412;2023-02-27T17:27:26;5.40;99.90
27797;DHT22;15177;50.844;4.412;2023-02-27T17:29:52;5.40;99.90
27797;DHT22;15177;50.844;4.412;2023-02-27T17:32:18;5.40;99.90
27797;DHT22;15177;50.844;4.412;2023-02-27T17:34:43;5.30;99.90
27797;DHT22;15177;50.844;4.412;2023-02-27T17:37:10;5.20;99.90
27797;DHT22;15177;50.844;4.412;2023-02-27T17:39:37;5.40;99.90
27797;DHT22;15177;50.844;4.412;2023-02-27T17:42:03;5.40;99.90
27797;DHT22;15177;50.844;4.412;2023-02-27T17:44:28;5.40;99.90
27797;DHT22;15177;50.844;4.412;2023-02-27T17:46:54;5.40;99.90
27797;DHT22;15177;50.844;4.412;2023-02-27T17:49:20;5.20;99.90
27797;DHT22;15177;50.844;4.412;2023-02-27T17:51:45;5.20;99.90
27797;DHT22;15177;50.844;4.412;2023-02-27T17:54:13;5.30;99.90
27797;DHT22;15177;50.844;4.412;2023-02-27T17:56:39;5.30;99.90
27797;DHT22;15177;50.844;4.412;2023-02-27T17:59:05;5.20;99.90
27797;DHT22;15177;50.844;4.412;2023-02-27T18:01:33;5.20;99.90
27797;DHT22;15177;50.844;4.412;2023-02-27T18:04:05;5.30;99.90
27797;DHT22;15177;50.844;4.412;2023-02-27T18:06:32;5.30;99.90
27797;DHT22;15177;50.844;4.412;2023-02-27T18:08:58;5.30;99.90
27797;DHT22;15177;50.844;4.412;2023-02-27T18:11:23;5.30;99.90
27797;DHT22;15177;50.844;4.412;2023-02-27T18:13:49;5.30;99.90
27797;DHT22;15177;50.844;4.412;2023-02-27T18:16:15;5.20;99.90
27797;DHT22;15177;50.844;4.412;2023-02-27T18:18:42;5.20;99.90
27797;DHT22;15177;50.844;4.412;2023-02-27T18:21:16;5.30;99.90
27797;DHT22;15177;50.844;4.412;2023-02-27T18:23:44;5.40;99.90
27797;DHT22;15177;50.844;4.412;2023-02-27T18:26:15;5.40;99.90
27797;DHT22;15177;50.844;4.412;2023-02-27T18:28:42;5.30;99.90
27797;DHT22;15177;50.844;4.412;2023-02-27T18:31:20;5.40;99.90
27797;DHT22;15177;50.844;4.412;2023-02-27T18:33:45;5.40;99.90
27797;DHT22;15177;50.844;4.412;2023-02-27T18:36:11;5.60;99.90